Time;durP1;ratioP1;P1;durP2;ratioP2;P2;SDS_P1;SDS_P2;PMS_P1;PMS_P2;Temp;Humidity;BMP_temperature;BMP_pressure;BME280_temperature;BME280_humidity;BME280_pressure;Samples;Min_cycle;Max_cycle;Signal;HPM_P1;HPM_P2
2023/01/02 00:00:51;;;;;;;7.40;3.70;;;;;;;10.55;95.89;100900.47;5029676;28;20056;-80
2023/01/02 00:03:16;;;;;;;11.43;3.83;;;;;;;10.58;95.75;100904.75;5024380;28;20030;-80
2023/01/02 00:05:41;;;;;;;7.88;3.53;;;;;;;10.61;95.63;100902.91;5013657;28;20056;-79
2023/01/02 00:08:07;;;;;;;6.40;3.28;;;;;;;10.62;95.74;100896.81;5021956;28;20050;-80
2023/01/02 00:10:32;;;;;;;7.38;3.33;;;;;;;10.65;95.81;100892.44;5031675;28;20036;-80
2023/01/02 00:12:57;;;;;;;10.05;3.30;;;;;;;10.68;95.49;100908.81;5024906;28;20041;-79
2023/01/02 00:15:22;;;;;;;7.20;3.10;;;;;;;10.69;95.47;100904.44;5023994;28;20029;-80
2023/01/02 00:17:48;;;;;;;7.75;3.42;;;;;;;10.70;95.48;100908.75;5018212;28;20026;-80
2023/01/02 00:20:13;;;;;;;7.15;3.40;;;;;;;10.72;95.45;100909.59;5031187;28;20481;-81
2023/01/02 00:22:38;;;;;;;7.80;3.20;;;;;;;10.72;95.48;100905.25;5024959;28;20040;-80
2023/01/02 00:25:04;;;;;;;8.88;3.28;;;;;;;10.74;95.32;100898.25;5013018;28;20022;-79
2023/01/02 00:27:29;;;;;;;9.57;3.35;;;;;;;10.74;95.43;100903.47;5013110;28;20049;-80
2023/01/02 00:29:54;;;;;;;7.20;3.25;;;;;;;10.76;95.06;100891.25;5017035;28;20034;-80
2023/01/02 00:32:20;;;;;;;8.25;3.33;;;;;;;10.77;95.08;100892.97;5031556;28;20113;-80
2023/01/02 00:34:45;;;;;;;6.30;3.30;;;;;;;10.76;94.89;100888.66;5028904;28;20465;-80
2023/01/02 00:37:10;;;;;;;8.20;3.00;;;;;;;10.78;94.72;100880.81;5019230;28;20029;-80
2023/01/02 00:39:36;;;;;;;8.50;3.13;;;;;;;10.77;94.93;100890.34;5031616;28;20018;-80
2023/01/02 00:42:01;;;;;;;6.68;3.03;;;;;;;10.77;94.85;100887.75;5028443;28;20065;-79
2023/01/02 00:44:26;;;;;;;8.43;3.40;;;;;;;10.77;94.86;100887.75;5030912;28;20391;-80
2023/01/02 00:46:51;;;;;;;6.88;3.40;;;;;;;10.78;94.75;100878.22;5021417;28;20064;-80
2023/01/02 00:49:17;;;;;;;6.82;3.03;;;;;;;10.77;94.95;100877.34;5030266;28;20504;-80
2023/01/02 00:51:42;;;;;;;7.80;3.13;;;;;;;10.78;94.86;100884.25;5045178;28;20037;-80
2023/01/02 00:54:07;;;;;;;7.55;2.85;;;;;;;10.79;94.67;100872.13;5033622;28;20503;-79
2023/01/02 00:56:32;;;;;;;9.45;3.03;;;;;;;10.82;94.34;100877.25;5035948;28;20045;-80
2023/01/02 00:58:58;;;;;;;10.30;3.15;;;;;;;10.84;94.73;100872.84;5035506;28;20079;-80
2023/01/02 01:01:23;;;;;;;10.40;3.28;;;;;;;10.88;94.21;100868.41;5035285;28;20031;-80
2023/01/02 01:03:48;;;;;;;8.63;3.08;;;;;;;10.91;94.23;100863.13;5034410;28;20102;-80
2023/01/02 01:06:14;;;;;;;11.38;3.25;;;;;;;10.93;94.16;100861.34;5034211;28;20029;-80
2023/01/02 01:08:39;;;;;;;6.65;3.13;;;;;;;10.92;94.11;100857.88;5035729;28;20029;-79
2023/01/02 01:11:11;;;;;;;7.78;3.30;;;;;;;10.95;94.35;100853.50;5035434;28;20072;-80
2023/01/02 01:13:37;;;;;;;7.35;2.92;;;;;;;10.97;93.78;100862.13;5034774;28;20025;-80
2023/01/02 01:16:11;;;;;;;8.50;3.17;;;;;;;10.98;93.80;100864.66;5034506;28;20045;-80
2023/01/02 01:18:37;;;;;;;6.60;3.10;;;;;;;11.00;93.66;100856.81;5033789;28;20591;-80
2023/01/02 01:21:10;;;;;;;7.50;3.10;;;;;;;11.02;93.66;100855.88;5034175;28;20147;-80
2023/01/02 01:23:36;;;;;;;8.38;3.40;;;;;;;11.02;93.52;100848.06;5035597;28;20068;-80
2023/01/02 01:26:04;;;;;;;6.72;2.83;;;;;;;11.04;93.56;100854.09;5035152;28;20476;-80
2023/01/02 01:28:29;;;;;;;5.72;2.80;;;;;;;11.08;93.69;100844.44;5035593;28;20063;-80
2023/01/02 01:30:54;;;;;;;6.95;2.92;;;;;;;11.11;93.47;100854.78;5034526;28;20429;-80
2023/01/02 01:33:19;;;;;;;8.77;2.83;;;;;;;11.15;93.50;100852.94;5034852;28;20485;-80
2023/01/02 01:35:45;;;;;;;5.10;2.90;;;;;;;11.16;93.54;100857.25;5035395;28;20041;-80
2023/01/02 01:38:10;;;;;;;7.78;2.70;;;;;;;11.17;93.61;100858.94;5035430;28;20100;-80
2023/01/02 01:40:37;;;;;;;8.27;2.83;;;;;;;11.20;93.73;100861.47;5034413;28;20029;-80
2023/01/02 01:43:02;;;;;;;5.45;2.80;;;;;;;11.21;93.43;100864.03;5034890;28;20033;-80
2023/01/02 01:45:27;;;;;;;7.15;2.80;;;;;;;11.20;93.72;100859.72;5034858;28;20037;-80
2023/01/02 01:47:55;;;;;;;8.30;2.80;;;;;;;11.21;93.73;100866.63;5035233;28;20104;-80
2023/01/02 01:50:26;;;;;;;6.38;2.85;;;;;;;11.21;93.77;100861.41;5032095;28;20033;-80
2023/01/02 01:53:15;;;;;;;5.57;2.63;;;;;;;11.22;93.92;100868.34;5030126;28;20029;-80
2023/01/02 01:55:52;;;;;;;6.82;2.80;;;;;;;11.21;94.07;100866.63;5031608;28;20085;-80
2023/01/02 01:58:21;;;;;;;6.88;2.88;;;;;;;11.23;94.23;100871.81;5035042;28;20033;-80
2023/01/02 02:00:47;;;;;;;7.22;2.90;;;;;;;11.23;94.12;100869.22;5034049;28;20388;-80
2023/01/02 02:03:16;;;;;;;8.02;2.83;;;;;;;11.22;94.16;100870.94;5033277;28;20034;-80
2023/01/02 02:05:44;;;;;;;8.30;3.17;;;;;;;11.21;94.75;100866.63;5034323;28;20060;-80
2023/01/02 02:08:16;;;;;;;6.43;2.95;;;;;;;11.22;94.59;100873.53;5034770;28;20040;-80
2023/01/02 02:10:42;;;;;;;8.50;2.88;;;;;;;11.22;94.86;100872.69;5032520;28;20037;-80
2023/01/02 02:13:08;;;;;;;7.80;2.75;;;;;;;11.22;94.92;100872.69;5031923;28;20086;-80
2023/01/02 02:16:05;;;;;;;6.32;2.67;;;;;;;11.21;95.07;100871.84;5034596;28;20033;-80
2023/01/02 02:18:49;;;;;;;7.85;2.80;;;;;;;11.23;94.87;100874.41;5032796;28;20029;-80
2023/01/02 02:21:24;;;;;;;9.18;2.70;;;;;;;11.23;95.29;100871.81;5033337;28;20057;-80
2023/01/02 02:24:02;;;;;;;6.95;2.85;;;;;;;11.22;95.15;100867.50;5048595;28;20025;-80
2023/01/02 02:26:28;;;;;;;8.23;2.70;;;;;;;11.24;95.43;100870.91;5032309;28;20025;-80
2023/01/02 02:29:18;;;;;;;8.52;2.95;;;;;;;11.23;95.67;100875.25;5017781;28;20056;-80
2023/01/02 02:32:14;;;;;;;7.10;2.45;;;;;;;11.23;95.49;100874.41;5023596;28;20045;-80
2023/01/02 02:34:53;;;;;;;9.50;2.97;;;;;;;11.25;95.61;100872.63;5033165;28;20025;-80
2023/01/02 02:37:30;;;;;;;8.80;2.63;;;;;;;11.23;95.40;100879.63;5032509;28;20030;-80
2023/01/02 02:40:38;;;;;;;9.98;3.00;;;;;;;11.24;95.82;100871.75;5033167;28;20025;-80
2023/01/02 02:43:18;;;;;;;8.73;2.50;;;;;;;11.25;95.70;100872.63;5025724;28;20083;-80
2023/01/02 02:46:28;;;;;;;9.90;2.85;;;;;;;11.25;95.71;100872.63;5031010;28;20468;-80
2023/01/02 02:49:11;;;;;;;4.43;2.42;;;;;;;11.26;95.76;100876.06;5010685;28;20038;-80
2023/01/02 02:52:06;;;;;;;6.85;2.92;;;;;;;11.26;95.82;100869.13;5029254;28;20049;-80
2023/01/02 02:54:39;;;;;;;8.13;2.90;;;;;;;11.24;95.91;100868.31;5032443;28;20029;-80
2023/01/02 02:57:06;;;;;;;7.57;2.67;;;;;;;11.26;95.89;100869.13;5032206;28;20112;-80
2023/01/02 02:59:35;;;;;;;7.97;2.88;;;;;;;11.24;96.10;100863.09;5032660;28;20060;-80
2023/01/02 03:02:01;;;;;;;9.38;2.60;;;;;;;11.23;96.38;100862.22;5031802;28;20092;-80
2023/01/02 03:04:27;;;;;;;6.25;2.70;;;;;;;11.24;96.09;100870.91;5032681;28;20112;-80
2023/01/02 03:07:09;;;;;;;6.25;2.72;;;;;;;11.23;96.35;100869.22;5032731;28;20064;-80
2023/01/02 03:09:43;;;;;;;6.95;3.17;;;;;;;11.23;96.20;100870.03;5032308;28;20047;-80
2023/01/02 03:12:21;;;;;;;7.68;2.80;;;;;;;11.23;96.21;100869.22;5029555;28;20460;-80
2023/01/02 03:15:10;;;;;;;8.15;3.08;;;;;;;11.23;96.35;100869.22;5031986;28;20119;-80
2023/01/02 03:18:03;;;;;;;9.65;2.58;;;;;;;11.24;96.10;100865.72;5032049;28;20044;-80
2023/01/02 03:20:35;;;;;;;4.72;2.63;;;;;;;11.22;96.42;100859.69;4995454;28;1021869;-80
2023/01/02 03:23:07;;;;;;;5.97;2.78;;;;;;;11.20;96.45;100858.88;5048780;28;20037;-80
2023/01/02 03:25:34;;;;;;;;;;;;;;;11.23;95.20;100848.38;5034888;28;20021;-80
2023/01/02 03:28:03;;;;;;;8.77;2.97;;;;;;;11.19;96.42;100857.16;5033292;28;19909;-80
2023/01/02 03:30:32;;;;;;;8.73;2.83;;;;;;;11.19;96.58;100859.75;5031013;28;20030;-80
2023/01/02 03:33:10;;;;;;;7.05;2.67;;;;;;;11.17;96.49;100862.44;5032620;28;20036;-80
2023/01/02 03:35:41;;;;;;;5.95;2.13;;;;;;;11.16;96.81;100859.84;5032709;28;20056;-80
2023/01/02 03:38:11;;;;;;;6.50;2.70;;;;;;;11.15;96.85;100847.72;5031927;28;20511;-80
2023/01/02 03:40:43;;;;;;;8.90;2.55;;;;;;;11.16;96.85;100862.44;5031694;28;20380;-80
2023/01/02 03:43:14;;;;;;;5.32;2.60;;;;;;;11.19;96.84;100870.19;5033067;28;20025;-80
2023/01/02 03:45:46;;;;;;;;;;;;;;;11.20;95.65;100870.13;5033620;28;20028;-81
2023/01/02 03:48:22;;;;;;;;;;;;;;;11.22;95.79;100876.16;5033566;28;19924;-80
2023/01/02 03:50:49;;;;;;;;;;;;;;;11.24;95.61;100881.34;5032478;28;19925;-80
2023/01/02 03:53:14;;;;;;;;;;;;;;;11.25;95.58;100883.03;5033420;28;19909;-81
2023/01/02 03:55:42;;;;;;;;;;;;;;;11.25;95.57;100883.03;5033145;28;19913;-81
2023/01/02 03:58:17;;;;;;;;;;;;;;;11.26;95.54;100886.47;5032096;28;19916;-80
2023/01/02 04:00:50;;;;;;;;;;;;;;;11.27;95.38;100885.59;5020476;28;19913;-81
2023/01/02 04:03:27;;;;;;;;;;;;;;;11.28;95.33;100892.50;5033059;28;20288;-81
2023/01/02 04:06:01;;;;;;;;;;;;;;;11.27;95.64;100891.66;5032464;28;19913;-81
2023/01/02 04:08:32;;;;;;;;;;;;;;;11.29;95.42;100889.84;5032636;28;19967;-81
2023/01/02 04:10:59;;;;;;;;;;;;;;;11.27;95.41;100883.84;5032352;28;20011;-81
2023/01/02 04:13:29;;;;;;;;;;;;;;;11.27;95.53;100880.38;5032368;28;19913;-80
2023/01/02 04:15:55;;;;;;;;;;;;;;;11.29;95.47;100882.03;5030494;28;20354;-80
2023/01/02 04:18:30;;;;;;;;;;;;;;;11.31;95.19;100903.69;5032929;28;19967;-81
2023/01/02 04:20:58;;;;;;;;;;;;;;;11.31;95.21;100898.47;5032067;28;20367;-81
2023/01/02 04:23:30;;;;;;;;;;;;;;;11.30;95.08;100904.56;5032920;28;19909;-80
2023/01/02 04:25:59;;;;;;;;;;;;;;;11.29;95.33;100902.88;5032779;28;19990;-80
2023/01/02 04:28:27;;;;;;;;;;;;;;;11.29;95.57;100897.66;5036695;28;19920;-81
2023/01/02 04:30:56;;;;;;;;;;;;;;;11.30;95.23;100916.75;5035424;28;19917;-81
2023/01/02 04:33:23;;;;;;;;;;;;;;;11.28;95.35;100908.13;5039076;28;20003;-81
2023/01/02 04:35:48;;;;;;;;;;;;;;;11.25;95.71;100909.09;5038152;28;20122;-81
2023/01/02 04:38:13;;;;;;;;;;;;;;;11.26;95.56;100905.59;5051725;28;20462;-81
2023/01/02 04:40:38;;;;;;;;;;;;;;;11.24;95.68;100899.56;5041731;28;19917;-80
2023/01/02 04:43:06;;;;;;;;;;;;;;;11.24;95.73;100912.59;5048260;28;19973;-80
2023/01/02 04:45:31;;;;;;;;;;;;;;;11.23;95.69;100910.88;5020069;28;19916;-81
2023/01/02 04:47:56;;;;;;;;;;;;;;;11.23;95.84;100916.91;5036936;28;20395;-81
2023/01/02 04:50:21;;;;;;;;;;;;;;;11.23;95.84;100921.28;5033747;28;19917;-81
2023/01/02 04:52:46;;;;;;;;;;;;;;;11.20;96.06;100918.75;5043068;28;20005;-81
2023/01/02 04:55:12;;;;;;;;;;;;;;;11.20;96.12;100918.75;5036659;28;19913;-80
2023/01/02 04:57:37;;;;;;;;;;;;;;;11.17;96.04;100911.91;5041096;28;19958;-81
2023/01/02 05:00:04;;;;;;;;;;;;;;;11.17;96.04;100919.72;5043151;28;19917;-81
2023/01/02 05:02:32;;;;;;;;;;;;;;;11.19;95.96;100935.28;5032495;28;19925;-81
2023/01/02 05:04:58;;;;;;;;;;;;;;;11.17;95.90;100927.53;5043518;28;20382;-81
2023/01/02 05:07:24;;;;;;;;;;;;;;;11.17;96.17;100937.94;5038678;28;19956;-81
2023/01/02 05:09:49;;;;;;;;;;;;;;;11.20;96.10;100937.00;5041046;28;19917;-81
2023/01/02 05:12:15;;;;;;;;;;;;;;;11.21;96.13;100944.75;5036623;28;19919;-81
2023/01/02 05:14:40;;;;;;;;;;;;;;;11.23;95.93;100945.56;5034203;28;20008;-81
2023/01/02 05:17:05;;;;;;;;;;;;;;;11.23;95.99;100934.31;5033569;28;19944;-81
2023/01/02 05:19:30;;;;;;;;;;;;;;;11.23;95.83;100931.72;5043068;28;19952;-80
2023/01/02 05:24:39;;;;;;;;;;;;;;;11.23;95.74;100953.38;5034194;28;20301;-80
2023/01/02 05:27:04;;;;;;;;;;;;;;;11.25;95.70;100942.94;5034846;28;20542;-81
2023/01/02 05:29:29;;;;;;;;;;;;;;;11.25;95.72;100940.34;5036371;28;19975;-81
2023/01/02 05:31:55;;;;;;;;;;;;;;;11.26;95.43;100938.56;5034830;28;19936;-80
2023/01/02 05:34:20;;;;;;;;;;;;;;;11.27;95.38;100953.31;5045490;28;19917;-80
2023/01/02 05:36:45;;;;;;;;;;;;;;;11.29;95.23;100944.53;5035640;28;19913;-80
2023/01/02 05:39:11;;;;;;;;;;;;;;;11.33;95.14;100958.34;5035942;28;19948;-80
2023/01/02 05:41:38;;;;;;;;;;;;;;;11.31;95.23;100958.38;5044985;28;19913;-81
2023/01/02 05:44:03;;;;;;;;;;;;;;;11.31;95.13;100958.38;5038721;28;20323;-80
2023/01/02 05:46:28;;;;;;;;;;;;;;;11.33;94.99;100977.44;5031590;28;19912;-80
2023/01/02 05:48:53;;;;;;;;;;;;;;;11.34;94.65;100973.09;5035218;28;19913;-80
2023/01/02 05:51:19;;;;;;;;;;;;;;;11.38;94.62;100978.16;5039730;28;20375;-80
2023/01/02 05:53:44;;;;;;;;;;;;;;;11.37;94.39;100979.06;5044429;28;19919;-81
2023/01/02 05:56:11;;;;;;;;;;;;;;;11.41;94.23;100979.81;5036619;28;20276;-81
2023/01/02 05:58:37;;;;;;;;;;;;;;;11.41;94.26;100973.78;5038835;28;19919;-80
2023/01/02 06:01:06;;;;;;;;;;;;;;;11.42;94.21;100983.31;5034176;28;20010;-81
2023/01/02 06:03:32;;;;;;;;;;;;;;;11.42;94.15;100985.91;5034479;28;19971;-80
2023/01/02 06:06:01;;;;;;;;;;;;;;;11.44;93.95;100992.78;5041253;28;19912;-81
2023/01/02 06:08:26;;;;;;;;;;;;;;;11.42;94.14;100989.34;5042758;28;20022;-80
2023/01/02 06:10:51;;;;;;;;;;;;;;;11.44;94.02;100982.34;5034888;28;19920;-80
2023/01/02 06:13:16;;;;;;;;;;;;;;;11.46;93.84;100990.13;5033418;28;20345;-81
2023/01/02 06:15:41;;;;;;;;;;;;;;;11.45;93.85;100999.69;5034949;28;19919;-80
2023/01/02 06:18:06;;;;;;;;;;;;;;;11.44;93.71;100990.16;5034066;28;20248;-80
2023/01/02 06:20:32;;;;;;;;;;;;;;;11.46;93.83;100996.19;5034922;28;19960;-81
2023/01/02 06:22:57;;;;;;;;;;;;;;;11.46;93.82;100992.72;5033833;28;19936;-81
2023/01/02 06:25:22;;;;;;;;;;;;;;;11.42;93.99;101001.53;5035005;28;19909;-80
2023/01/02 06:27:47;;;;;;;;;;;;;;;11.43;94.00;101005.84;5034954;28;20003;-81
2023/01/02 06:30:12;;;;;;;;;;;;;;;11.38;94.44;101004.22;5034615;28;20220;-81
2023/01/02 06:32:37;;;;;;;;;;;;;;;11.35;94.68;101019.94;5033590;28;19916;-81
2023/01/02 06:35:03;;;;;;;;;;;;;;;11.33;95.00;101032.13;5035888;28;20356;-81
2023/01/02 06:37:28;;;;;;;;;;;;;;;11.30;95.25;101027.00;5034784;28;19909;-81
2023/01/02 06:39:53;;;;;;;;;;;;;;;11.28;95.47;101036.59;5034459;28;19913;-81
2023/01/02 06:42:18;;;;;;;;;;;;;;;11.25;95.65;101044.50;5033027;28;20348;-81
2023/01/02 06:44:43;;;;;;;;;;;;;;;11.25;96.06;101065.34;5033929;28;19920;-82
2023/01/02 06:47:09;;;;;;;;;;;;;;;11.19;96.16;101084.56;5034582;28;19909;-82
2023/01/02 06:49:34;;;;;;;;;;;;;;;11.08;94.01;101087.44;5033684;28;20008;-82
2023/01/02 06:51:59;;;;;;;;;;;;;;;10.89;94.51;101093.97;5033673;28;19913;-81
2023/01/02 06:54:24;;;;;;;;;;;;;;;10.81;94.48;101101.09;5034470;28;20349;-81
2023/01/02 06:56:49;;;;;;;;;;;;;;;10.69;93.55;101123.03;5033831;28;19912;-81
2023/01/02 06:59:14;;;;;;;;;;;;;;;10.53;93.12;101127.72;5033075;28;19913;-81
2023/01/02 07:01:40;;;;;;;;;;;;;;;10.45;92.73;101136.53;5033146;28;20015;-81
2023/01/02 07:04:05;;;;;;;;;;;;;;;10.42;93.21;101136.56;5031920;28;19913;-81
2023/01/02 07:06:30;;;;;;;;;;;;;;;10.28;93.26;101131.66;5033361;28;19913;-81
2023/01/02 07:08:55;;;;;;;;;;;;;;;10.25;93.42;101156.81;5034129;28;20126;-81
2023/01/02 07:11:22;;;;;;;;;;;;;;;10.16;92.94;101166.53;5032448;28;20288;-81
2023/01/02 07:13:49;;;;;;;;;;;;;;;10.06;93.03;101165.00;5037071;28;20006;-81
2023/01/02 07:16:15;;;;;;;;;;;;;;;10.00;93.23;101185.91;5032265;28;20471;-81
2023/01/02 07:18:41;;;;;;;;;;;;;;;9.94;93.30;101184.25;5032475;28;20261;-81
2023/01/02 07:21:06;;;;;;;;;;;;;;;9.83;92.58;101189.66;5035096;28;19924;-81
2023/01/02 07:23:32;;;;;;;;;;;;;;;9.77;92.81;101200.13;5041840;28;20021;-81
2023/01/02 07:25:58;;;;;;;;;;;;;;;9.68;92.83;101206.34;5023180;28;20410;-81
2023/01/02 07:28:24;;;;;;;;;;;;;;;9.67;93.03;101214.16;5034021;28;19984;-81
2023/01/02 07:30:49;;;;;;;;;;;;;;;9.64;93.26;101229.78;5032717;28;20036;-81
2023/01/02 07:33:14;;;;;;;;;;;;;;;9.66;93.42;101228.03;5033758;28;19963;-81
2023/01/02 07:35:40;;;;;;;;;;;;;;;9.68;93.50;101244.47;5033183;28;20136;-81
2023/01/02 07:38:05;;;;;;;;;;;;;;;9.68;93.52;101247.06;5033659;28;19913;-81
2023/01/02 07:40:31;;;;;;;;;;;;;;;9.68;93.56;101257.44;5032085;28;19919;-81
2023/01/02 07:42:56;;;;;;;;;;;;;;;9.64;93.48;101253.19;5031795;28;19913;-81
2023/01/02 07:45:21;;;;;;;;;;;;;;;9.61;93.44;101248.91;5032935;28;19939;-81
2023/01/02 07:47:47;;;;;;;;;;;;;;;9.63;93.61;101267.03;5031000;28;20003;-81
2023/01/02 07:50:12;;;;;;;;;;;;;;;9.63;93.75;101264.44;5035912;28;19962;-81
2023/01/02 07:52:37;;;;;;;;;;;;;;;9.66;93.72;101262.66;5044175;28;19917;-81
2023/01/02 07:55:02;;;;;;;;;;;;;;;9.66;93.75;101280.00;5035464;28;19929;-81
2023/01/02 07:57:28;;;;;;;;;;;;;;;9.66;93.51;101285.19;5031274;28;20382;-81
2023/01/02 07:59:54;;;;;;;;;;;;;;;9.62;93.48;101289.59;5032272;28;20019;-82
2023/01/02 08:02:19;;;;;;;;;;;;;;;9.63;93.54;101295.63;5039885;28;20008;-81
2023/01/02 08:04:44;;;;;;;;;;;;;;;9.62;93.33;101304.28;5024808;28;19920;-81
2023/01/02 08:07:09;;;;;;;;;;;;;;;9.62;93.51;101304.28;5040662;28;19924;-81
2023/01/02 08:09:34;;;;;;;;;;;;;;;9.62;93.50;101315.56;5042784;28;19924;-81
2023/01/02 08:11:59;;;;;;;;;;;;;;;9.62;93.58;101325.06;5044577;28;19913;-82
2023/01/02 08:14:25;;;;;;;;;;;;;;;9.62;93.36;101335.47;5044205;28;20374;-81
2023/01/02 08:16:50;;;;;;;;;;;;;;;9.60;93.39;101337.22;5040426;28;19913;-81
2023/01/02 08:19:15;;;;;;;;;;;;;;;9.56;93.36;101347.66;5034394;28;20253;-81
2023/01/02 08:21:40;;;;;;;;;;;;;;;9.56;93.60;101346.81;5034397;28;19916;-81
2023/01/02 08:24:07;;;;;;;;;;;;;;;9.54;93.45;101354.63;5030304;28;19917;-81
2023/01/02 08:26:32;;;;;;;;;;;;;;;9.52;93.59;101361.59;5029955;28;19968;-81
2023/01/02 08:28:58;;;;;;;;;;;;;;;9.47;93.51;101363.38;5031859;28;19916;-81
2023/01/02 08:31:23;;;;;;;;;;;;;;;9.44;93.40;101363.41;5032903;28;20344;-81
2023/01/02 08:33:48;;;;;;;;;;;;;;;9.41;93.77;101373.81;5030913;28;19923;-81
2023/01/02 08:36:14;;;;;;;;;;;;;;;9.38;93.64;101373.88;5032876;28;19909;-80
2023/01/02 08:38:39;;;;;;;;;;;;;;;9.34;93.52;101374.78;5033266;28;19909;-81
2023/01/02 08:41:04;;;;;;;;;;;;;;;9.32;93.72;101386.94;5032948;28;19916;-81
2023/01/02 08:43:32;;;;;;;;;;;;;;;9.31;93.58;101386.06;5031268;28;20018;-80
2023/01/02 08:45:57;;;;;;;;;;;;;;;9.29;93.85;101381.75;5030159;28;20368;-81
2023/01/02 08:48:22;;;;;;;;;;;;;;;9.25;93.64;101384.41;5032707;28;19935;-81
2023/01/02 08:50:48;;;;;;;;;;;;;;;9.21;93.72;101393.13;5032816;28;19913;-81
2023/01/02 08:53:13;;;;;;;;;;;;;;;9.19;93.81;101400.06;5032931;28;19917;-81
2023/01/02 08:55:38;;;;;;;;;;;;;;;9.20;93.87;101401.78;5031448;28;19999;-81
2023/01/02 08:58:04;;;;;;;;;;;;;;;9.19;94.08;101412.16;5032350;28;19912;-81
2023/01/02 09:00:29;;;;;;;;;;;;;;;9.17;93.71;101412.19;5032829;28;19909;-81
2023/01/02 09:02:54;;;;;;;;;;;;;;;9.17;93.90;101419.97;5032787;28;19931;-81
2023/01/02 09:05:19;;;;;;;;;;;;;;;9.19;93.96;101423.44;5030276;28;19909;-81
2023/01/02 09:07:44;;;;;;;;;;;;;;;9.25;93.76;101428.53;5032533;28;19923;-81
2023/01/02 09:10:10;;;;;;;;;;;;;;;9.26;93.76;101424.22;5031820;28;19948;-81
2023/01/02 09:12:35;;;;;;;;;;;;;;;9.29;93.93;101426.78;5033233;28;19917;-81
2023/01/02 09:15:00;;;;;;;;;;;;;;;9.30;93.81;101432.81;5033569;28;19909;-80
2023/01/02 09:17:25;;;;;;;;;;;;;;;9.27;93.37;101444.97;5030566;28;19939;-81
2023/01/02 09:19:51;;;;;;;;;;;;;;;9.26;93.29;101444.97;5030112;28;20360;-81
2023/01/02 09:22:16;;;;;;;;;;;;;;;9.30;93.39;101453.59;5038501;28;19919;-81
2023/01/02 09:24:41;;;;;;;;;;;;;;;9.29;93.18;101457.94;5022619;28;20284;-80
2023/01/02 09:27:06;;;;;;;;;;;;;;;9.27;93.11;101464.88;5033581;28;19920;-81
2023/01/02 09:29:31;;;;;;;;;;;;;;;9.24;92.57;101476.13;5033924;28;21563;-81
2023/01/02 09:31:57;;;;;;;;;;;;;;;9.24;92.94;101476.13;5024209;28;20000;-81
2023/01/02 09:34:22;;;;;;;;;;;;;;;9.26;92.82;101495.16;5023691;28;20349;-81
2023/01/02 09:36:47;;;;;;;;;;;;;;;9.25;92.82;101498.63;5034688;28;20300;-81
2023/01/02 09:39:12;;;;;;;;;;;;;;;9.26;92.65;101487.38;5034665;28;19920;-80
2023/01/02 09:41:39;;;;;;;;;;;;;;;9.27;92.46;101496.03;5034761;28;20308;-81
2023/01/02 09:44:05;;;;;;;;;;;;;;;9.29;92.13;101503.81;5035739;28;19963;-80
2023/01/02 09:46:30;;;;;;;;;;;;;;;9.27;92.14;101517.66;5034167;28;19921;-81
2023/01/02 09:48:55;;;;;;;;;;;;;;;9.28;92.12;101515.94;5033077;28;19944;-81
2023/01/02 09:51:20;;;;;;;;;;;;;;;9.30;91.67;101516.78;5035525;28;20382;-81
2023/01/02 09:53:46;;;;;;;;;;;;;;;9.29;91.60;101520.25;5036440;28;19909;-80
2023/01/02 09:56:18;;;;;;;;;;;;;;;9.31;91.62;101521.06;5055298;28;19970;-80
2023/01/02 09:58:55;;;;;;;;;;;;;;;9.33;91.76;101521.94;5033589;28;19912;-81
2023/01/02 10:01:33;;;;;;;;;;;;;;;9.38;91.60;101511.53;5027702;28;20008;-81
2023/01/02 10:04:15;;;;;;;;;;;;;;;9.40;91.66;101512.34;5026220;28;19918;-80
2023/01/02 10:06:45;;;;;;;;;;;;;;;9.41;91.51;101517.53;5028719;28;19917;-81
2023/01/02 10:09:22;;;;;;;;;;;;;;;9.44;91.08;101515.78;5028683;28;19913;-81
2023/01/02 10:11:55;;;;;;;;;;;;;;;9.42;91.10;101510.59;5028150;28;20331;-81
2023/01/02 10:14:20;;;;;;;;;;;;;;;9.42;90.98;101520.97;5028118;28;20253;-81
2023/01/02 10:16:47;;;;;;;;;;;;;;;9.42;91.03;101528.75;5028607;28;19924;-80
2023/01/02 10:19:38;;;;;;;;;;;;;;;9.41;91.11;101540.03;5028917;28;19963;-80
2023/01/02 10:22:06;;;;;;;;;;;;;;;9.41;90.80;101534.84;5027041;28;20406;-80
2023/01/02 10:24:37;;;;;;;;;;;;;;;9.42;90.76;101541.75;5026174;28;20008;-80
2023/01/02 10:27:03;;;;;;;;;;;;;;;9.44;90.60;101544.34;5027923;28;19952;-80
2023/01/02 10:29:30;;;;;;;;;;;;;;;9.45;90.51;101526.16;5028628;28;19916;-80
2023/01/02 10:32:04;;;;;;;;;;;;;;;9.47;90.46;101524.41;5027916;28;19917;-80
2023/01/02 10:34:41;;;;;;;;;;;;;;;9.48;90.11;101523.53;5026384;28;19920;-81
2023/01/02 10:37:13;;;;;;;;;;;;;;;9.50;90.15;101528.69;5028008;28;19924;-80
2023/01/02 10:39:40;;;;;;;;;;;;;;;9.51;89.93;101528.69;5028672;28;19940;-80
2023/01/02 10:42:05;;;;;;;;;;;;;;;9.50;89.92;101539.94;5027742;28;20376;-80
2023/01/02 10:44:32;;;;;;;;;;;;;;;9.50;89.87;101539.06;5028726;28;20000;-79
2023/01/02 10:46:59;;;;;;;;;;;;;;;9.49;89.76;101540.81;5027782;28;19923;-80
2023/01/02 10:49:24;;;;;;;;;;;;;;;9.48;89.70;101548.66;5028380;28;20410;-81
2023/01/02 10:51:52;;;;;;;;;;;;;;;9.46;89.29;101546.06;5027490;28;19916;-80
2023/01/02 10:54:17;;;;;;;;;;;;;;;9.45;89.37;101557.31;5028155;28;20719;-80
2023/01/02 10:56:45;;;;;;;;;;;;;;;9.44;89.21;101555.59;5027097;28;19933;-80
2023/01/02 10:59:24;;;;;;;;;;;;;;;9.45;89.14;101554.72;5028376;28;19913;-80
2023/01/02 11:01:51;;;;;;;;;;;;;;;9.44;89.02;101550.38;5025427;28;19916;-81
2023/01/02 11:04:19;;;;;;;;;;;;;;;9.46;88.92;101542.59;5026692;28;20035;-81
2023/01/02 11:06:52;;;;;;;;;;;;;;;9.46;88.74;101558.19;5025954;28;20000;-80
2023/01/02 11:09:43;;;;;;;;;;;;;;;9.48;88.51;101557.28;5026529;28;19960;-79
2023/01/02 11:12:12;;;;;;;;;;;;;;;9.49;88.88;101564.22;5025908;28;19921;-80
2023/01/02 11:14:38;;;;;;;;;;;;;;;9.51;88.54;101572.84;5026125;28;19987;-80
2023/01/02 11:17:09;;;;;;;;;;;;;;;9.54;88.41;101580.63;5026710;28;20396;-81
2023/01/02 11:19:38;;;;;;;;;;;;;;;9.58;88.32;101568.44;5026598;28;19928;-81
2023/01/02 11:22:04;;;;;;;;;;;;;;;9.60;88.48;101576.22;5025975;28;19924;-81
2023/01/02 11:24:29;;;;;;;;;;;;;;;9.62;88.30;101579.66;5026693;28;19916;-81
2023/01/02 11:26:55;;;;;;;;;;;;;;;9.63;88.23;101586.59;5026308;28;19921;-80
2023/01/02 11:29:31;;;;;;;;;;;;;;;9.63;88.32;101589.19;5026151;28;20015;-80
2023/01/02 11:31:57;;;;;;;;;;;;;;;9.64;88.17;101585.72;5025737;28;19921;-80
2023/01/02 11:34:24;;;;;;;;;;;;;;;9.64;88.08;101588.31;5026277;28;19971;-80
2023/01/02 11:37:08;;;;;;;;;;;;;;;9.65;88.01;101600.41;5026083;28;19921;-80
2023/01/02 11:39:33;;;;;;;;;;;;;;;9.64;87.94;101601.28;5025458;28;20061;-80
2023/01/02 11:45:07;;;;;;;;;;;;;;;9.62;87.56;101587.47;5025821;28;19963;-82
2023/01/02 11:47:44;;;;;;;;;;;;;;;9.62;87.65;101597.84;5025578;28;20273;-81
2023/01/02 11:50:18;;;;;;;;;;;;;;;9.65;87.24;101592.63;5023389;28;20295;-81
2023/01/02 11:52:48;;;;;;;;;;;;;;;9.62;87.46;101593.53;5023234;28;19920;-81
2023/01/02 11:55:28;;;;;;;;;;;;;;;9.63;87.75;101586.59;5026573;28;19917;-80
2023/01/02 11:58:06;;;;;;;;;;;;;;;9.66;87.61;101605.59;5023989;28;20446;-80
2023/01/02 12:00:33;;;;;;;;;;;;;;;9.69;87.37;101609.91;5026271;28;20390;-81
2023/01/02 12:03:04;;;;;;;;;;;;;;;9.66;87.41;101612.53;5025141;28;19928;-81
2023/01/02 12:05:35;;;;;;;;;;;;;;;9.65;87.48;101621.22;5024664;28;19963;-81
2023/01/02 12:08:14;;;;;;;;;;;;;;;9.64;87.22;101614.28;5026225;28;20020;-80
2023/01/02 12:10:57;;;;;;;;;;;;;;;9.62;87.43;101621.22;5024791;28;19925;-81
2023/01/02 12:13:38;;;;;;;;;;;;;;;9.63;87.20;101617.75;5024837;28;19917;-81
2023/01/02 12:16:22;;;;;;;;;;;;;;;9.62;87.34;101613.44;5023685;28;19917;-82
2023/01/02 12:18:59;;;;;;;;;;;;;;;9.66;87.07;101615.13;5025070;28;20394;-81
2023/01/02 12:21:28;;;;;;;;;;;;;;;9.66;87.15;101612.53;5024283;28;20538;-81
2023/01/02 12:24:02;;;;;;;;;;;;;;;9.65;87.02;101616.00;5025633;28;20019;-80
2023/01/02 12:26:31;;;;;;;;;;;;;;;9.65;87.27;101616.00;5025755;28;20323;-80
2023/01/02 12:29:04;;;;;;;;;;;;;;;9.66;87.24;101617.75;5025308;28;19921;-81
2023/01/02 12:31:31;;;;;;;;;;;;;;;9.66;87.13;101623.78;5024886;28;19921;-80